createdAt,value
2022-11-09T00:03:55.311Z,88.32
2022-11-09T00:08:59.425Z,89.82
2022-11-09T00:14:05.081Z,89.54
2022-11-09T00:19:06.860Z,88.92
2022-11-09T00:24:09.321Z,89.93
2022-11-09T00:29:11.085Z,89.93
2022-11-09T00:34:12.886Z,90.13
2022-11-09T00:39:17.322Z,90.35
2022-11-09T00:44:19.118Z,90.46
2022-11-09T00:49:20.825Z,90.96
2022-11-09T00:54:22.454Z,90.92
2022-11-09T00:59:24.381Z,90.60
2022-11-09T01:04:26.101Z,90.69
2022-11-09T01:09:28.022Z,90.76
2022-11-09T01:14:30.048Z,90.69
2022-11-09T01:19:32.010Z,90.27
2022-11-09T01:24:33.833Z,89.83
2022-11-09T01:29:35.659Z,89.54
2022-11-09T01:34:38.191Z,89.46
2022-11-09T01:39:39.841Z,89.54
2022-11-09T01:44:41.615Z,89.30
2022-11-09T01:49:52.749Z,88.66
2022-11-09T01:55:03.104Z,87.69
2022-11-09T02:00:11.859Z,89.21
2022-11-09T02:05:22.064Z,89.05
2022-11-09T02:10:33.672Z,88.33
2022-11-09T02:15:39.163Z,88.01
2022-11-09T02:20:49.284Z,88.33
2022-11-09T02:26:01.529Z,88.59
2022-11-09T02:31:06.737Z,88.81
2022-11-09T02:36:08.600Z,87.53
2022-11-09T02:41:12.991Z,88.16
2022-11-09T02:46:24.124Z,88.44
2022-11-09T02:51:25.882Z,88.53
2022-11-09T02:56:29.198Z,88.89
2022-11-09T03:01:31.523Z,87.60
2022-11-09T03:06:36.803Z,87.10
2022-11-09T03:11:44.836Z,86.99
2022-11-09T03:16:50.676Z,86.71
2022-11-09T03:21:53.422Z,87.28
2022-11-09T03:26:58.484Z,87.88
2022-11-09T03:32:00.602Z,88.17
2022-11-09T03:37:02.545Z,88.14
2022-11-09T03:42:04.890Z,88.48
2022-11-09T03:47:06.874Z,89.04
2022-11-09T03:52:08.640Z,89.33
2022-11-09T03:57:10.326Z,90.15
2022-11-09T04:02:12.061Z,90.05
2022-11-09T04:07:13.873Z,90.30
2022-11-09T04:12:15.640Z,90.79
2022-11-09T04:17:17.332Z,90.32
2022-11-09T04:22:19.138Z,90.48
2022-11-09T04:27:20.856Z,90.68
2022-11-09T04:32:22.619Z,90.80
2022-11-09T04:37:24.441Z,90.44
2022-11-09T04:42:26.124Z,90.42
2022-11-09T04:47:27.970Z,90.75
2022-11-09T04:52:29.693Z,90.30
2022-11-09T04:57:31.458Z,91.12
2022-11-09T05:02:33.179Z,90.13
2022-11-09T05:07:34.905Z,90.01
2022-11-09T05:12:36.532Z,89.69
2022-11-09T05:17:38.181Z,90.58
2022-11-09T05:22:59.544Z,89.21
2022-11-09T05:28:01.534Z,89.50
2022-11-09T05:33:03.449Z,90.24
2022-11-09T05:38:05.177Z,91.51
2022-11-09T05:43:06.940Z,91.88
2022-11-09T05:48:09.160Z,91.82
2022-11-09T05:53:12.188Z,91.52
2022-11-09T05:58:14.081Z,91.53
2022-11-09T06:03:15.756Z,90.92
2022-11-09T06:08:17.435Z,90.78
2022-11-09T06:13:19.503Z,90.78
2022-11-09T06:18:25.492Z,91.26
2022-11-09T06:23:27.722Z,92.54
2022-11-09T06:28:29.996Z,90.49
2022-11-09T06:33:33.764Z,89.07
2022-11-09T06:38:35.654Z,88.14
2022-11-09T06:43:37.454Z,87.63
2022-11-09T06:48:39.391Z,86.94
2022-11-09T06:53:41.437Z,85.95
2022-11-09T06:58:43.571Z,87.16
2022-11-09T07:03:45.303Z,89.04
2022-11-09T07:08:47.079Z,88.75
2022-11-09T07:13:54.787Z,87.18
2022-11-09T07:18:58.920Z,87.04
2022-11-09T07:24:00.688Z,87.69
2022-11-09T07:29:02.377Z,88.86
2022-11-09T07:34:04.887Z,90.15
2022-11-09T07:39:06.595Z,91.34
2022-11-09T07:44:08.926Z,92.04
2022-11-09T07:49:10.701Z,92.80
2022-11-09T07:54:12.709Z,93.05
2022-11-09T07:59:14.382Z,93.50
2022-11-09T08:04:16.141Z,93.35
2022-11-09T08:09:18.484Z,93.86
2022-11-09T08:14:20.373Z,93.83
2022-11-09T08:19:22.131Z,94.19
2022-11-09T08:24:24.370Z,93.88
2022-11-09T08:29:26.096Z,93.94
2022-11-09T08:34:27.859Z,93.91
2022-11-09T08:39:29.543Z,93.69
2022-11-09T08:44:31.276Z,93.77
2022-11-09T08:49:32.962Z,93.49
2022-11-09T08:54:36.331Z,93.07
2022-11-09T08:59:38.306Z,92.56
2022-11-09T09:04:40.501Z,92.47
2022-11-09T09:09:42.209Z,92.06
2022-11-09T09:14:43.897Z,91.33
2022-11-09T09:19:49.805Z,91.30
2022-11-09T09:24:51.904Z,91.07
2022-11-09T09:29:53.741Z,90.45
2022-11-09T09:34:55.481Z,90.23
2022-11-09T09:39:57.175Z,89.91
2022-11-09T09:45:04.687Z,88.75
2022-11-09T09:50:14.275Z,87.14
2022-11-09T09:55:24.450Z,86.50
2022-11-09T10:00:27.903Z,84.67
2022-11-09T10:05:44.382Z,83.46
2022-11-09T10:10:56.185Z,82.89
2022-11-09T10:16:29.619Z,82.14
2022-11-09T10:21:43.485Z,82.08
2022-11-09T10:26:55.097Z,81.66
2022-11-09T10:32:14.548Z,81.58
2022-11-09T10:37:22.889Z,81.27
2022-11-09T10:42:24.569Z,81.34
2022-11-09T10:47:47.920Z,81.35
2022-11-09T10:53:10.754Z,80.22
2022-11-09T10:58:47.242Z,79.79
2022-11-09T11:04:22.948Z,79.29
2022-11-09T11:09:43.612Z,78.13
2022-11-09T11:15:14.435Z,78.03
2022-11-09T11:20:37.541Z,77.89
2022-11-09T11:26:23.646Z,78.12
2022-11-09T11:31:44.314Z,76.48
2022-11-09T11:37:35.415Z,76.57
2022-11-09T11:43:17.238Z,76.16
2022-11-09T11:48:41.512Z,76.58
2022-11-09T11:54:01.700Z,76.57
2022-11-09T11:59:33.170Z,76.87
2022-11-09T12:05:12.428Z,77.17
2022-11-09T12:11:01.793Z,76.86
2022-11-09T12:16:28.422Z,77.02
2022-11-09T12:22:18.380Z,77.48
2022-11-09T12:28:21.769Z,77.38
2022-11-09T12:33:49.426Z,76.76
2022-11-09T12:39:25.974Z,76.06
2022-11-09T12:45:01.789Z,76.35
2022-11-09T12:50:25.524Z,76.18
2022-11-09T12:55:55.837Z,76.49
2022-11-09T13:01:34.578Z,75.82
2022-11-09T13:07:04.144Z,75.95
2022-11-09T13:12:39.216Z,76.04
2022-11-09T13:18:23.871Z,76.12
2022-11-09T13:24:03.332Z,75.80
2022-11-09T13:29:30.804Z,75.10
2022-11-09T13:34:56.273Z,75.00
2022-11-09T13:40:31.671Z,74.51
2022-11-09T13:45:55.929Z,74.62
2022-11-09T13:51:35.540Z,74.41
2022-11-09T13:56:56.852Z,74.62
2022-11-09T14:02:22.806Z,74.44
2022-11-09T14:07:43.383Z,74.53
2022-11-09T14:13:34.494Z,75.16
2022-11-09T14:19:17.970Z,75.54
2022-11-09T14:24:38.564Z,75.60
2022-11-09T14:30:02.356Z,76.09
2022-11-09T14:35:22.957Z,76.48
2022-11-09T14:40:45.771Z,77.04
2022-11-09T14:46:07.559Z,77.35
2022-11-09T14:51:33.291Z,77.33
2022-11-09T14:56:55.190Z,78.27
2022-11-09T15:02:18.405Z,79.06
2022-11-09T15:07:38.707Z,79.15
2022-11-09T15:13:02.300Z,80.04
2022-11-09T15:18:33.476Z,80.42
2022-11-09T15:24:17.589Z,80.49
2022-11-09T15:29:42.995Z,81.04
2022-11-09T15:35:13.578Z,81.71
2022-11-09T15:40:33.597Z,82.36
2022-11-09T15:45:54.858Z,83.69
2022-11-09T15:51:16.014Z,84.54
2022-11-09T15:56:36.495Z,84.74
2022-11-09T16:01:56.943Z,85.16
2022-11-09T16:07:17.468Z,85.95
2022-11-09T16:12:39.476Z,85.79
2022-11-09T16:18:04.114Z,85.53
2022-11-09T16:23:25.348Z,85.67
2022-11-09T16:28:46.319Z,85.83
2022-11-09T16:34:07.684Z,86.28
2022-11-09T16:39:28.071Z,86.84
2022-11-09T16:44:49.449Z,87.67
2022-11-09T16:50:09.865Z,88.19
2022-11-09T16:55:30.833Z,88.88
2022-11-09T17:06:33.875Z,90.10
2022-11-09T17:11:54.220Z,90.47
2022-11-09T17:17:21.273Z,90.85
2022-11-09T17:22:46.109Z,91.22
2022-11-09T17:28:07.625Z,91.38
2022-11-09T17:33:28.469Z,91.40
2022-11-09T17:38:48.902Z,91.07
2022-11-09T17:44:09.625Z,91.09
2022-11-09T17:49:29.875Z,91.09
2022-11-09T17:54:50.475Z,90.65
2022-11-09T18:00:11.481Z,90.57
2022-11-09T18:05:31.867Z,90.91
2022-11-09T18:10:51.900Z,91.18
2022-11-09T18:16:17.728Z,91.68
2022-11-09T18:21:39.122Z,92.20
2022-11-09T18:26:59.929Z,92.74
2022-11-09T18:32:20.045Z,93.58
2022-11-09T18:37:40.777Z,94.24
2022-11-09T18:43:01.264Z,94.94
2022-11-09T18:48:21.994Z,95.40
2022-11-09T18:53:44.431Z,96.02
2022-11-09T18:59:05.104Z,96.32
2022-11-09T19:04:25.932Z,96.54
2022-11-09T19:09:46.139Z,96.76
2022-11-09T19:15:07.456Z,97.05
2022-11-09T19:20:28.987Z,97.18
2022-11-09T19:25:50.271Z,97.83
2022-11-09T19:31:18.795Z,98.34
2022-11-09T19:36:39.604Z,98.57
2022-11-09T19:41:59.496Z,99.09
2022-11-09T19:47:20.093Z,99.31
2022-11-09T19:52:40.808Z,99.57
2022-11-09T19:58:01.124Z,100.00
2022-11-09T20:03:21.530Z,100.00
2022-11-09T20:08:41.878Z,100.00
2022-11-09T20:14:06.029Z,100.00
2022-11-09T20:19:26.160Z,100.00
2022-11-09T20:24:46.610Z,100.00
2022-11-09T20:30:07.641Z,100.00
2022-11-09T20:35:28.192Z,100.00
2022-11-09T20:41:00.145Z,100.00
2022-11-09T20:46:22.913Z,100.00
2022-11-09T20:51:43.301Z,100.00
2022-11-09T20:57:03.772Z,100.00
2022-11-09T21:02:24.378Z,100.00
2022-11-09T21:07:44.640Z,100.00
2022-11-09T21:13:05.131Z,100.00
2022-11-09T21:18:25.544Z,100.00
2022-11-09T21:24:04.692Z,100.00
2022-11-09T21:29:43.535Z,100.00
2022-11-09T21:35:04.808Z,100.00
2022-11-09T21:40:25.099Z,100.00
2022-11-09T21:45:49.287Z,100.00
2022-11-09T21:51:09.321Z,100.00
2022-11-09T21:56:30.127Z,100.00
2022-11-09T22:01:52.052Z,100.00
2022-11-09T22:07:12.698Z,100.00
2022-11-09T22:12:51.653Z,100.00
2022-11-09T22:18:31.933Z,100.00
2022-11-09T22:23:52.285Z,100.00
2022-11-09T22:29:12.400Z,100.00
2022-11-09T22:34:32.586Z,100.00
2022-11-09T22:39:52.728Z,100.00
2022-11-09T22:45:13.152Z,100.00
2022-11-09T22:50:33.335Z,100.00
2022-11-09T22:55:58.730Z,100.00
2022-11-09T23:01:20.451Z,100.00
2022-11-09T23:06:40.898Z,100.00
2022-11-09T23:12:01.379Z,100.00
2022-11-09T23:17:40.295Z,100.00
2022-11-09T23:23:00.621Z,100.00
2022-11-09T23:28:21.395Z,100.00
2022-11-09T23:33:42.543Z,100.00
2022-11-09T23:39:03.048Z,100.00
2022-11-09T23:44:23.309Z,100.00
2022-11-09T23:49:43.909Z,100.00
2022-11-09T23:55:04.592Z,100.00
